Time;durP1;ratioP1;P1;durP2;ratioP2;P2;SDS_P1;SDS_P2;PMS_P1;PMS_P2;Temp;Humidity;BMP_temperature;BMP_pressure;BME280_temperature;BME280_humidity;BME280_pressure;Samples;Min_cycle;Max_cycle;Signal;HPM_P1;HPM_P2
2020/12/30 00:01:58;;;;;;;1.70;1.60;;;19.20;58.80;;;;;;6882896;28;20307;-56
2020/12/30 00:05:39;;;;;;;2.47;1.70;;;19.20;58.80;;;;;;6882236;28;20230;-56
2020/12/30 00:09:21;;;;;;;1.63;1.30;;;19.20;58.90;;;;;;6882088;28;20337;-54
2020/12/30 00:13:04;;;;;;;1.70;1.60;;;19.20;58.90;;;;;;6881846;28;20191;-55
2020/12/30 00:16:45;;;;;;;1.90;1.70;;;19.20;58.90;;;;;;6880746;28;20233;-50
2020/12/30 00:20:27;;;;;;;1.50;1.40;;;19.10;58.90;;;;;;6881463;28;20278;-51
2020/12/30 00:24:08;;;;;;;1.83;1.70;;;19.10;58.90;;;;;;6882283;28;20226;-54
2020/12/30 00:27:50;;;;;;;2.83;1.53;;;19.10;58.90;;;;;;6882320;28;20257;-53
2020/12/30 00:31:33;;;;;;;1.83;1.60;;;19.10;59.00;;;;;;6882536;28;20274;-51
2020/12/30 00:35:16;;;;;;;2.03;1.50;;;19.10;59.00;;;;;;6882167;28;20274;-53
2020/12/30 00:38:58;;;;;;;1.90;1.30;;;19.10;59.10;;;;;;6881754;28;20250;-55
2020/12/30 00:42:40;;;;;;;1.43;1.33;;;19.10;59.10;;;;;;6881976;28;20322;-50
2020/12/30 00:46:22;;;;;;;1.60;1.50;;;19.10;59.10;;;;;;6883306;28;20283;-51
2020/12/30 00:50:05;;;;;;;2.53;1.70;;;19.10;59.10;;;;;;6882424;28;20199;-52
2020/12/30 00:53:47;;;;;;;2.07;1.47;;;19.00;59.10;;;;;;6880940;28;20278;-53
2020/12/30 00:57:28;;;;;;;2.47;1.50;;;19.00;59.20;;;;;;6882133;28;20215;-51
2020/12/30 01:01:10;;;;;;;1.77;1.33;;;19.00;59.10;;;;;;6886523;28;20294;-52
2020/12/30 01:04:52;;;;;;;1.77;1.40;;;19.00;59.20;;;;;;6885992;28;20203;-51
2020/12/30 01:08:34;;;;;;;1.50;1.40;;;19.00;59.20;;;;;;6885844;28;20211;-51
2020/12/30 01:12:16;;;;;;;1.37;1.27;;;19.00;59.30;;;;;;6885926;28;20187;-53
2020/12/30 01:15:57;;;;;;;1.77;1.50;;;19.00;59.30;;;;;;6885780;28;20215;-51
2020/12/30 01:19:39;;;;;;;1.57;1.43;;;19.00;59.30;;;;;;6886215;28;20686;-51
2020/12/30 01:23:20;;;;;;;1.80;1.60;;;19.00;59.30;;;;;;6885719;28;20275;-51
2020/12/30 01:27:03;;;;;;;1.97;1.30;;;18.90;59.30;;;;;;6885966;28;20227;-53
2020/12/30 01:30:48;;;;;;;1.53;1.30;;;19.00;59.40;;;;;;6885976;28;20746;-53
2020/12/30 01:34:29;;;;;;;1.53;1.23;;;19.00;59.40;;;;;;6886196;28;20665;-51
2020/12/30 01:38:11;;;;;;;1.37;1.20;;;18.90;59.40;;;;;;6885814;28;20811;-55
2020/12/30 01:41:52;;;;;;;2.23;1.10;;;18.90;59.40;;;;;;6885550;28;20215;-54
2020/12/30 01:45:35;;;;;;;1.87;1.53;;;18.90;59.40;;;;;;6880560;28;20309;-54
2020/12/30 01:49:19;;;;;;;1.47;1.37;;;19.00;59.50;;;;;;6866862;28;20296;-54
2020/12/30 01:53:01;;;;;;;1.93;1.30;;;18.90;59.40;;;;;;6884524;28;20736;-54
2020/12/30 01:56:45;;;;;;;1.60;1.50;;;18.90;59.40;;;;;;6885037;28;20258;-56
2020/12/30 02:00:27;;;;;;;1.50;1.40;;;18.90;59.50;;;;;;6885421;28;20196;-53
2020/12/30 02:04:10;;;;;;;1.33;1.23;;;18.90;59.50;;;;;;6884310;28;20262;-54
2020/12/30 02:07:52;;;;;;;1.70;1.60;;;18.90;59.50;;;;;;6885206;28;20575;-50
2020/12/30 02:11:34;;;;;;;1.73;1.63;;;18.90;59.50;;;;;;6885529;28;20191;-53
2020/12/30 02:15:23;;;;;;;3.03;1.67;;;18.90;59.50;;;;;;6884694;28;20286;-54
2020/12/30 02:19:04;;;;;;;1.57;1.30;;;18.80;59.50;;;;;;6863294;28;20224;-53
2020/12/30 02:22:58;;;;;;;1.40;1.30;;;18.90;59.60;;;;;;6864454;28;20306;-54
2020/12/30 02:26:40;;;;;;;2.20;1.40;;;18.80;59.50;;;;;;6884018;28;20219;-53
2020/12/30 02:30:22;;;;;;;2.13;1.60;;;18.80;59.50;;;;;;6883979;28;20706;-53
2020/12/30 02:34:03;;;;;;;1.73;1.40;;;18.90;59.60;;;;;;6883129;28;20283;-51
2020/12/30 02:37:45;;;;;;;1.50;1.20;;;18.80;59.60;;;;;;6882897;28;20290;-52
2020/12/30 02:41:27;;;;;;;2.70;1.40;;;18.80;59.60;;;;;;6884664;28;20280;-51
2020/12/30 02:45:09;;;;;;;1.30;1.20;;;18.80;59.60;;;;;;6882739;28;20269;-51
2020/12/30 02:48:51;;;;;;;2.73;1.43;;;18.80;59.60;;;;;;6883837;28;20334;-51
2020/12/30 02:52:32;;;;;;;1.50;1.10;;;18.80;59.60;;;;;;6883688;28;20198;-51
2020/12/30 02:56:15;;;;;;;1.67;1.27;;;18.80;59.60;;;;;;6883324;28;20196;-51
2020/12/30 02:59:56;;;;;;;1.40;1.30;;;18.80;59.60;;;;;;6882819;28;20202;-52
2020/12/30 03:03:39;;;;;;;1.30;1.20;;;18.80;59.60;;;;;;6884085;28;20219;-53
2020/12/30 03:07:21;;;;;;;1.60;1.20;;;18.80;59.70;;;;;;6885381;28;20297;-51
2020/12/30 03:11:04;;;;;;;1.30;1.20;;;18.80;59.70;;;;;;6883846;28;20274;-51
2020/12/30 03:14:46;;;;;;;1.80;1.33;;;18.80;59.70;;;;;;6885260;28;20191;-51
2020/12/30 03:18:27;;;;;;;1.30;1.20;;;18.80;59.70;;;;;;6884173;28;20572;-53
2020/12/30 03:22:10;;;;;;;1.30;1.20;;;18.80;59.70;;;;;;6881942;28;20267;-51
2020/12/30 03:25:51;;;;;;;1.50;1.20;;;18.80;59.70;;;;;;6882925;28;20273;-51
2020/12/30 03:29:33;;;;;;;2.10;1.23;;;18.80;59.70;;;;;;6883035;28;20274;-51
2020/12/30 03:33:14;;;;;;;1.63;1.20;;;18.80;59.70;;;;;;6883085;28;20295;-53
2020/12/30 03:36:56;;;;;;;1.40;1.23;;;18.80;59.80;;;;;;6883060;28;20723;-51
2020/12/30 03:40:39;;;;;;;1.50;1.20;;;18.70;59.70;;;;;;6883133;28;20281;-55
2020/12/30 03:44:20;;;;;;;1.57;1.23;;;18.70;59.70;;;;;;6882830;28;20761;-54
2020/12/30 03:48:02;;;;;;;1.13;1.03;;;18.70;59.70;;;;;;6882815;28;20302;-55
2020/12/30 03:51:43;;;;;;;1.30;1.20;;;18.70;59.70;;;;;;6882776;28;20191;-53
2020/12/30 03:55:25;;;;;;;1.20;1.03;;;18.70;59.80;;;;;;6881710;28;20199;-51
2020/12/30 03:59:07;;;;;;;1.40;1.10;;;18.80;59.80;;;;;;6883036;28;20251;-53
2020/12/30 04:02:49;;;;;;;1.50;1.40;;;18.70;59.80;;;;;;6882832;28;20269;-54
2020/12/30 04:06:32;;;;;;;1.27;1.17;;;18.70;59.80;;;;;;6881818;28;20223;-54
2020/12/30 04:10:13;;;;;;;1.67;1.43;;;18.70;59.80;;;;;;6882054;28;20643;-51
2020/12/30 04:13:55;;;;;;;1.40;1.20;;;18.70;59.80;;;;;;6882497;28;20274;-57
2020/12/30 04:17:37;;;;;;;1.90;1.30;;;18.70;59.80;;;;;;6882043;28;20278;-49
2020/12/30 04:21:20;;;;;;;1.70;1.17;;;18.70;59.80;;;;;;6878780;28;20196;-50
2020/12/30 04:25:03;;;;;;;1.47;1.20;;;18.70;59.80;;;;;;6863665;28;20601;-53
2020/12/30 04:28:44;;;;;;;1.20;1.10;;;18.70;59.80;;;;;;6884285;28;20640;-51
2020/12/30 04:32:26;;;;;;;1.30;1.13;;;18.70;59.80;;;;;;6881983;28;20195;-53
2020/12/30 04:36:09;;;;;;;1.67;1.40;;;18.70;59.80;;;;;;6859578;28;20199;-47
2020/12/30 04:39:51;;;;;;;1.47;1.13;;;18.70;59.80;;;;;;6858900;28;20203;-53
2020/12/30 04:43:36;;;;;;;1.40;1.10;;;18.70;59.80;;;;;;6867747;28;20211;-53
2020/12/30 04:47:18;;;;;;;1.10;1.00;;;18.70;59.80;;;;;;6886565;28;20243;-52
2020/12/30 04:51:00;;;;;;;1.10;1.00;;;18.70;59.90;;;;;;6885694;28;20200;-48
2020/12/30 04:54:44;;;;;;;1.57;0.90;;;18.70;59.90;;;;;;6883036;28;20191;-51
2020/12/30 04:58:27;;;;;;;1.70;1.40;;;18.70;59.90;;;;;;6886492;28;20582;-49
2020/12/30 05:02:10;;;;;;;1.20;1.10;;;18.70;59.90;;;;;;6886025;28;20211;-50
2020/12/30 05:05:54;;;;;;;2.03;1.00;;;18.70;59.90;;;;;;6885505;28;20188;-49
2020/12/30 05:09:36;;;;;;;1.73;1.20;;;18.70;59.90;;;;;;6885798;28;20202;-52
2020/12/30 05:13:19;;;;;;;1.30;1.03;;;18.70;60.00;;;;;;6884888;28;20240;-51
2020/12/30 05:17:03;;;;;;;1.03;0.93;;;18.70;59.90;;;;;;6884554;28;20576;-53
2020/12/30 05:20:46;;;;;;;1.77;1.00;;;18.70;60.00;;;;;;6885361;28;20223;-50
2020/12/30 05:24:28;;;;;;;1.90;1.30;;;18.70;59.90;;;;;;6859541;28;20215;-50
2020/12/30 05:28:11;;;;;;;1.20;1.07;;;18.70;60.00;;;;;;6878649;28;20218;-52
2020/12/30 05:31:55;;;;;;;1.20;1.00;;;18.70;59.90;;;;;;6885560;28;20192;-50
2020/12/30 05:35:37;;;;;;;1.30;1.00;;;18.70;60.00;;;;;;6885231;28;20621;-50
2020/12/30 05:39:21;;;;;;;1.10;0.97;;;18.70;60.00;;;;;;6885862;28;20253;-49
2020/12/30 05:43:10;;;;;;;1.73;1.00;;;18.70;59.90;;;;;;6885037;28;20223;-51
2020/12/30 05:46:52;;;;;;;1.13;1.03;;;18.70;59.90;;;;;;6884434;28;20219;-53
2020/12/30 05:50:46;;;;;;;1.27;1.17;;;18.70;59.90;;;;;;6884412;28;20195;-48
2020/12/30 05:54:29;;;;;;;1.07;0.97;;;18.80;59.90;;;;;;6884413;28;20191;-49
2020/12/30 05:58:14;;;;;;;1.20;0.90;;;18.70;59.90;;;;;;6883863;28;20730;-55
2020/12/30 06:01:57;;;;;;;1.03;0.87;;;18.80;59.90;;;;;;6884032;28;20251;-49
2020/12/30 06:05:40;;;;;;;1.00;0.97;;;18.70;60.40;;;;;;6883799;28;20222;-51
2020/12/30 06:09:23;;;;;;;1.47;1.00;;;18.70;59.80;;;;;;6883901;28;20305;-48
2020/12/30 06:13:08;;;;;;;1.00;0.90;;;18.70;59.80;;;;;;6883574;28;20267;-51
2020/12/30 06:16:55;;;;;;;0.90;0.80;;;18.70;59.80;;;;;;6883346;28;20278;-51
2020/12/30 06:20:39;;;;;;;1.23;0.93;;;18.70;59.80;;;;;;6884033;28;20227;-53
2020/12/30 06:24:21;;;;;;;1.20;1.10;;;18.70;59.80;;;;;;6857048;28;20664;-52
2020/12/30 06:28:08;;;;;;;1.57;0.87;;;18.70;59.80;;;;;;6870076;28;20230;-54
2020/12/30 06:31:50;;;;;;;1.10;1.00;;;18.80;59.90;;;;;;6884779;28;20229;-53
2020/12/30 06:35:34;;;;;;;1.27;0.97;;;18.70;59.80;;;;;;6884294;28;20191;-56
2020/12/30 06:39:20;;;;;;;1.53;1.00;;;18.80;59.90;;;;;;6884639;28;20211;-53
2020/12/30 06:43:03;;;;;;;1.13;1.03;;;18.80;59.90;;;;;;6885823;28;20212;-53
2020/12/30 06:46:45;;;;;;;1.43;0.73;;;18.70;59.80;;;;;;6883563;28;20705;-54
2020/12/30 06:50:27;;;;;;;1.03;0.90;;;18.80;59.80;;;;;;6883649;28;20192;-55
2020/12/30 06:54:09;;;;;;;1.13;1.03;;;18.80;59.80;;;;;;6885994;28;20200;-53
2020/12/30 06:57:50;;;;;;;1.50;1.20;;;18.80;59.80;;;;;;6881309;28;20222;-53
2020/12/30 07:01:53;;;;;;;1.10;1.00;;;18.80;59.80;;;;;;6883590;28;20191;-56
2020/12/30 07:05:35;;;;;;;1.23;1.00;;;18.80;59.80;;;;;;6856476;28;20200;-56
2020/12/30 07:09:17;;;;;;;1.33;0.90;;;18.80;59.80;;;;;;6855705;28;20207;-56
2020/12/30 07:12:58;;;;;;;1.00;0.90;;;18.80;59.80;;;;;;6855761;28;20232;-52
2020/12/30 07:16:41;;;;;;;1.93;1.00;;;18.80;59.80;;;;;;6855223;28;20243;-56
2020/12/30 07:20:24;;;;;;;1.20;1.10;;;18.80;59.80;;;;;;6855975;28;20223;-51
2020/12/30 07:24:07;;;;;;;1.57;1.00;;;18.80;59.80;;;;;;6883028;28;20211;-53
2020/12/30 07:27:53;;;;;;;1.10;0.80;;;18.80;59.80;;;;;;6903113;22;20230;-46
2020/12/30 07:31:35;;;;;;;1.00;0.90;;;18.70;59.70;;;;;;7009482;28;20189;-44
2020/12/30 07:35:21;;;;;;;1.00;0.97;;;18.80;59.80;;;;;;6994954;28;20220;-45
2020/12/30 07:39:04;;;;;;;1.40;1.07;;;18.80;59.70;;;;;;6994809;28;20277;-44
2020/12/30 07:42:56;;;;;;;1.13;1.00;;;18.80;59.70;;;;;;6993877;28;20297;-46
2020/12/30 07:46:37;;;;;;;1.00;0.83;;;18.80;59.80;;;;;;6994505;28;20188;-45
2020/12/30 07:50:19;;;;;;;1.60;0.97;;;18.80;59.80;;;;;;6994291;28;20242;-44
2020/12/30 07:54:01;;;;;;;1.27;1.10;;;18.80;59.70;;;;;;6993407;28;20707;-45
2020/12/30 07:57:43;;;;;;;1.43;0.90;;;18.80;59.70;;;;;;6995484;28;20193;-44
2020/12/30 08:01:25;;;;;;;5.07;1.20;;;18.80;59.70;;;;;;6986219;28;20321;-47
2020/12/30 08:05:07;;;;;;;1.77;0.90;;;18.80;60.40;;;;;;6989537;28;20200;-44
2020/12/30 08:08:48;;;;;;;1.27;1.17;;;18.80;59.70;;;;;;6984554;28;20422;-44
2020/12/30 08:12:30;;;;;;;1.43;1.10;;;18.80;59.50;;;;;;6992993;28;20272;-46
2020/12/30 08:16:14;;;;;;;1.17;0.97;;;18.90;59.50;;;;;;6994295;28;20275;-48
2020/12/30 08:19:56;;;;;;;0.93;0.83;;;18.90;60.00;;;;;;6996693;28;20219;-45
2020/12/30 08:23:37;;;;;;;1.83;1.30;;;18.90;59.40;;;;;;6996256;28;20303;-45
2020/12/30 08:27:20;;;;;;;0.80;0.80;;;18.90;59.30;;;;;;6995711;28;20196;-45
2020/12/30 08:31:04;;;;;;;1.53;0.90;;;18.90;59.20;;;;;;6997178;28;20196;-46
2020/12/30 08:34:53;;;;;;;1.33;1.00;;;18.90;59.20;;;;;;7007245;28;20216;-45
2020/12/30 08:38:35;;;;;;;1.90;1.00;;;19.00;59.20;;;;;;6997632;28;20255;-46
2020/12/30 08:42:59;;;;;;;2.97;0.93;;;19.00;59.10;;;;;;6988002;28;20461;-45
2020/12/30 08:46:42;;;;;;;1.03;0.87;;;19.10;59.00;;;;;;6993795;28;20224;-48
2020/12/30 08:50:26;;;;;;;1.17;0.80;;;19.20;59.10;;;;;;6995592;28;20701;-54
2020/12/30 08:54:14;;;;;;;1.87;1.30;;;19.40;58.50;;;;;;6999576;28;20195;-52
2020/12/30 08:57:56;;;;;;;1.87;1.20;;;19.70;57.80;;;;;;6992694;28;20733;-57
2020/12/30 09:01:37;;;;;;;2.50;1.10;;;19.90;56.70;;;;;;6992678;28;20235;-58
2020/12/30 09:05:27;;;;;;;3.87;1.07;;;20.00;56.30;;;;;;6988905;28;20208;-52
2020/12/30 09:09:10;;;;;;;1.67;1.20;;;20.20;56.00;;;;;;6986946;28;20221;-53
2020/12/30 09:12:52;;;;;;;1.40;0.90;;;20.30;55.70;;;;;;7000605;28;20241;-55
2020/12/30 09:16:34;;;;;;;1.00;0.90;;;20.40;55.80;;;;;;6995983;28;20192;-52
2020/12/30 09:20:17;;;;;;;1.80;1.10;;;20.40;56.50;;;;;;6993386;28;20300;-55
2020/12/30 09:23:59;;;;;;;3.07;0.93;;;20.40;55.10;;;;;;6991850;28;20216;-50
2020/12/30 09:27:41;;;;;;;2.50;0.93;;;20.50;55.40;;;;;;6992747;28;20650;-55
2020/12/30 09:31:23;;;;;;;1.17;1.00;;;20.50;55.30;;;;;;6991631;28;20313;-51
2020/12/30 09:35:05;;;;;;;2.00;0.90;;;20.60;54.70;;;;;;6984005;28;20224;-52
2020/12/30 09:38:55;;;;;;;1.80;1.30;;;20.70;54.40;;;;;;6993936;28;20221;-49
2020/12/30 09:42:38;;;;;;;2.70;1.00;;;20.70;54.20;;;;;;6993363;28;20587;-53
2020/12/30 09:46:22;;;;;;;2.13;1.10;;;20.80;54.80;;;;;;6992959;28;20220;-54
2020/12/30 09:50:04;;;;;;;1.63;1.00;;;20.70;54.10;;;;;;6993491;28;20221;-49
2020/12/30 09:53:47;;;;;;;2.83;1.00;;;20.80;54.10;;;;;;6991031;28;20228;-50
2020/12/30 09:57:29;;;;;;;3.53;1.00;;;20.90;53.80;;;;;;6992919;28;20606;-50
2020/12/30 10:01:12;;;;;;;1.93;1.17;;;20.90;54.20;;;;;;6981255;28;20197;-55
2020/12/30 10:04:53;;;;;;;1.43;0.93;;;20.90;53.80;;;;;;6994458;28;20303;-56
2020/12/30 10:08:35;;;;;;;1.87;1.00;;;20.90;53.80;;;;;;6994230;28;20220;-56
2020/12/30 10:12:17;;;;;;;2.27;1.07;;;21.00;53.70;;;;;;6994049;28;20230;-55
2020/12/30 10:15:58;;;;;;;1.60;0.97;;;21.00;53.50;;;;;;6994503;28;20239;-55
2020/12/30 10:19:41;;;;;;;1.17;1.07;;;21.00;53.60;;;;;;6999433;28;20223;-52
2020/12/30 10:23:22;;;;;;;1.07;0.97;;;21.00;54.00;;;;;;6993126;28;20224;-56
2020/12/30 10:27:04;;;;;;;1.00;0.80;;;21.00;53.40;;;;;;6992812;28;20231;-52
2020/12/30 10:30:46;;;;;;;1.20;1.00;;;21.10;53.40;;;;;;6989558;28;20244;-52
2020/12/30 10:34:27;;;;;;;1.73;1.07;;;21.10;53.30;;;;;;6995980;28;20196;-53
2020/12/30 10:38:10;;;;;;;1.13;0.80;;;21.10;53.00;;;;;;6990491;28;20247;-49
2020/12/30 10:41:54;;;;;;;1.33;0.90;;;21.10;53.00;;;;;;6990780;28;20556;-53
2020/12/30 10:45:35;;;;;;;1.53;1.00;;;21.00;52.90;;;;;;6994497;28;20224;-50
2020/12/30 10:49:17;;;;;;;1.27;0.70;;;21.00;52.90;;;;;;6994955;28;20213;-54
2020/12/30 10:52:59;;;;;;;1.27;0.80;;;21.00;52.90;;;;;;6988011;28;20205;-49
2020/12/30 10:56:45;;;;;;;1.60;0.80;;;21.00;52.90;;;;;;7002371;28;20200;-49
2020/12/30 11:00:27;;;;;;;0.97;0.83;;;21.00;52.90;;;;;;6994893;28;20254;-49
2020/12/30 11:04:09;;;;;;;3.10;1.00;;;21.00;52.90;;;;;;6994013;28;20851;-49
2020/12/30 11:07:50;;;;;;;1.23;1.10;;;21.00;53.00;;;;;;6994046;28;20223;-50
2020/12/30 11:11:32;;;;;;;1.58;1.20;;;21.00;53.00;;;;;;6992371;28;20433;-55
2020/12/30 11:15:14;;;;;;;1.43;1.00;;;21.00;53.50;;;;;;6994926;28;20200;-51
2020/12/30 11:18:56;;;;;;;1.93;1.00;;;21.10;53.40;;;;;;6995656;28;20219;-52
2020/12/30 11:22:38;;;;;;;2.00;0.90;;;21.10;53.50;;;;;;6994577;28;20251;-52
2020/12/30 11:26:20;;;;;;;2.60;1.07;;;21.10;53.50;;;;;;6993647;28;20216;-53
2020/12/30 11:30:02;;;;;;;1.70;1.10;;;21.20;52.50;;;;;;6992779;28;20263;-53
2020/12/30 11:33:44;;;;;;;1.67;1.20;;;21.10;53.00;;;;;;6989814;28;20185;-53
2020/12/30 11:37:26;;;;;;;1.73;1.30;;;21.20;53.40;;;;;;6992178;28;20722;-56
2020/12/30 11:41:08;;;;;;;1.30;1.00;;;21.20;52.90;;;;;;6988906;28;20257;-54
2020/12/30 11:44:51;;;;;;;1.67;0.93;;;21.20;53.10;;;;;;6992354;28;20263;-53
2020/12/30 11:48:32;;;;;;;2.03;1.00;;;21.20;53.00;;;;;;6988702;28;20209;-52
2020/12/30 11:52:15;;;;;;;2.40;1.00;;;21.10;53.40;;;;;;6991438;28;20250;-49
2020/12/30 11:55:57;;;;;;;2.83;1.23;;;21.10;52.90;;;;;;6993589;28;20193;-53
2020/12/30 11:59:39;;;;;;;2.60;1.43;;;21.10;53.00;;;;;;6991938;28;20217;-49
2020/12/30 12:03:21;;;;;;;1.87;0.90;;;21.10;53.90;;;;;;6981574;28;20255;-51
2020/12/30 12:07:03;;;;;;;2.00;1.00;;;21.20;53.00;;;;;;6993694;28;20549;-51
2020/12/30 12:10:45;;;;;;;1.37;1.17;;;21.20;52.80;;;;;;6991321;28;20244;-50
2020/12/30 12:14:27;;;;;;;2.07;1.30;;;21.20;52.70;;;;;;6981575;28;20196;-53
2020/12/30 12:18:09;;;;;;;1.20;0.93;;;21.20;52.60;;;;;;6992596;28;20235;-55
2020/12/30 12:21:51;;;;;;;1.57;1.07;;;21.20;52.70;;;;;;6985426;28;20607;-52
2020/12/30 12:25:33;;;;;;;2.40;1.40;;;21.30;52.70;;;;;;6990221;28;20197;-58
2020/12/30 12:29:45;;;;;;;10.07;1.33;;;21.40;52.60;;;;;;6990890;28;20224;-56
2020/12/30 12:33:26;;;;;;;1.77;1.37;;;21.40;52.90;;;;;;6990348;28;20262;-58
2020/12/30 12:37:09;;;;;;;3.87;1.20;;;21.40;52.40;;;;;;6988329;28;20246;-53
2020/12/30 12:40:51;;;;;;;1.60;1.20;;;21.50;52.30;;;;;;6985117;28;20258;-56
2020/12/30 12:44:33;;;;;;;2.57;1.37;;;21.50;52.30;;;;;;6992033;28;20301;-56
2020/12/30 12:48:15;;;;;;;2.00;1.23;;;21.60;52.20;;;;;;6992878;28;20212;-58
2020/12/30 12:51:58;;;;;;;3.57;1.40;;;21.60;52.10;;;;;;6991807;28;20227;-57
2020/12/30 12:55:40;;;;;;;1.90;1.23;;;21.60;52.00;;;;;;6994270;28;20233;-55
2020/12/30 12:59:21;;;;;;;3.63;1.60;;;21.60;52.10;;;;;;6991001;28;21011;-56
2020/12/30 13:03:03;;;;;;;3.17;1.70;;;21.60;51.60;;;;;;6989961;28;20213;-52
2020/12/30 13:06:46;;;;;;;5.57;1.90;;;21.60;50.80;;;;;;6995121;28;20205;-52
2020/12/30 13:10:27;;;;;;;2.93;1.60;;;21.50;50.80;;;;;;6995523;28;20718;-55
2020/12/30 13:14:09;;;;;;;3.50;1.90;;;21.50;51.30;;;;;;6995296;28;20651;-50
2020/12/30 13:17:51;;;;;;;4.57;1.53;;;21.50;52.20;;;;;;6995197;28;20656;-50
2020/12/30 13:21:36;;;;;;;2.97;1.50;;;21.60;52.00;;;;;;6994390;28;20232;-51
2020/12/30 13:25:18;;;;;;;3.10;1.37;;;21.60;51.70;;;;;;6987369;28;20192;-54
2020/12/30 13:29:00;;;;;;;4.07;1.60;;;21.70;52.20;;;;;;6993901;28;20235;-52
2020/12/30 13:32:42;;;;;;;3.17;1.63;;;21.70;52.00;;;;;;6994345;28;20224;-54
2020/12/30 13:36:25;;;;;;;4.27;1.50;;;21.70;51.70;;;;;;7004334;28;20197;-55
2020/12/30 13:40:07;;;;;;;3.17;1.43;;;21.70;51.80;;;;;;6996205;28;20213;-51
2020/12/30 13:43:49;;;;;;;2.30;1.60;;;21.70;52.10;;;;;;6989576;28;20255;-52
2020/12/30 13:47:31;;;;;;;4.47;1.90;;;21.80;51.00;;;;;;6996792;28;20702;-63
2020/12/30 13:51:13;;;;;;;4.20;1.97;;;21.90;50.40;;;;;;6995268;28;20197;-48
2020/12/30 13:54:54;;;;;;;4.77;1.87;;;21.90;49.00;;;;;;6994889;28;20204;-49
2020/12/30 13:58:36;;;;;;;4.03;1.83;;;21.90;49.40;;;;;;6995042;28;20613;-48
2020/12/30 14:02:19;;;;;;;3.20;1.87;;;21.80;49.50;;;;;;6999542;28;20282;-51
2020/12/30 14:06:00;;;;;;;3.90;1.93;;;21.80;48.80;;;;;;6994982;28;20204;-48
2020/12/30 14:09:42;;;;;;;5.93;1.90;;;21.80;48.90;;;;;;6994878;28;20217;-49
2020/12/30 14:13:24;;;;;;;7.27;2.17;;;21.80;49.40;;;;;;6993086;28;20227;-52
2020/12/30 14:17:06;;;;;;;2.97;1.70;;;21.80;49.20;;;;;;6987972;28;20548;-52
2020/12/30 14:20:50;;;;;;;2.83;1.80;;;21.90;49.20;;;;;;6983528;28;20266;-47
2020/12/30 14:24:32;;;;;;;3.43;1.50;;;21.80;49.60;;;;;;6994919;28;20307;-49
2020/12/30 14:28:13;;;;;;;4.83;1.67;;;21.80;49.40;;;;;;6994450;28;20261;-47
2020/12/30 14:31:55;;;;;;;7.70;1.60;;;21.80;50.00;;;;;;6994004;28;20621;-50
2020/12/30 14:35:37;;;;;;;4.53;1.70;;;21.70;50.10;;;;;;6992309;28;20238;-51
2020/12/30 14:39:19;;;;;;;2.70;1.70;;;21.60;50.40;;;;;;6992287;28;20216;-48
2020/12/30 14:43:02;;;;;;;4.00;1.50;;;21.60;52.00;;;;;;6983467;28;20216;-51
2020/12/30 14:46:43;;;;;;;3.57;1.60;;;21.60;51.40;;;;;;6957471;28;20208;-47
2020/12/30 14:50:25;;;;;;;2.10;1.40;;;21.60;51.30;;;;;;6994882;28;20262;-55
2020/12/30 14:54:08;;;;;;;4.75;1.65;;;21.70;51.30;;;;;;6993634;28;20468;-48
2020/12/30 14:57:50;;;;;;;2.53;1.37;;;21.60;51.30;;;;;;6992579;28;20197;-48
2020/12/30 15:01:32;;;;;;;3.10;1.60;;;21.70;51.20;;;;;;6997371;28;20192;-45
2020/12/30 15:05:15;;;;;;;2.43;1.23;;;21.70;51.20;;;;;;6980186;28;20208;-57
2020/12/30 15:08:57;;;;;;;3.23;1.60;;;21.80;51.30;;;;;;6993334;28;20220;-58
2020/12/30 15:12:40;;;;;;;1.67;1.17;;;21.80;50.90;;;;;;6992935;28;20211;-59
2020/12/30 15:16:23;;;;;;;4.00;1.53;;;22.00;50.70;;;;;;6993424;28;20675;-60
2020/12/30 15:20:07;;;;;;;2.40;1.30;;;22.10;50.00;;;;;;6991421;28;20701;-58
2020/12/30 15:23:50;;;;;;;3.77;1.50;;;22.10;49.70;;;;;;6993707;28;20213;-57
2020/12/30 15:27:35;;;;;;;1.83;1.47;;;22.20;49.60;;;;;;6993260;28;20208;-56
2020/12/30 15:31:18;;;;;;;2.03;1.47;;;22.30;49.50;;;;;;6991595;28;20200;-57
2020/12/30 15:35:02;;;;;;;3.93;1.60;;;22.30;49.40;;;;;;6976974;28;20287;-57
2020/12/30 15:38:44;;;;;;;4.07;1.67;;;22.30;49.10;;;;;;6979162;28;20273;-61
2020/12/30 15:42:29;;;;;;;3.80;1.93;;;22.10;48.90;;;;;;6993278;28;20254;-61
2020/12/30 15:46:15;;;;;;;4.13;1.80;;;22.10;49.20;;;;;;6989776;28;20216;-56
2020/12/30 15:50:00;;;;;;;2.23;1.80;;;22.20;49.50;;;;;;6985895;28;20236;-57
2020/12/30 15:53:45;;;;;;;1.90;1.60;;;22.20;49.40;;;;;;6995356;28;20677;-59
2020/12/30 15:57:29;;;;;;;2.50;1.50;;;22.10;49.90;;;;;;6975126;28;20687;-55
2020/12/30 16:01:11;;;;;;;2.63;1.70;;;22.10;50.00;;;;;;6990040;28;20203;-57
2020/12/30 16:04:53;;;;;;;3.00;1.50;;;22.10;50.00;;;;;;6987192;28;20212;-43
2020/12/30 16:08:37;;;;;;;1.67;1.30;;;22.20;50.10;;;;;;6992122;28;20692;-48
2020/12/30 16:12:19;;;;;;;3.43;1.90;;;22.10;50.00;;;;;;6993273;28;20275;-48
2020/12/30 16:16:02;;;;;;;6.03;3.17;;;22.30;49.60;;;;;;6989641;28;20228;-48
2020/12/30 16:19:43;;;;;;;8.50;4.27;;;22.30;49.50;;;;;;6992506;28;20219;-48
2020/12/30 16:23:25;;;;;;;13.93;7.27;;;22.40;49.50;;;;;;6991798;28;20212;-47
2020/12/30 16:27:08;;;;;;;18.73;8.87;;;22.30;49.40;;;;;;6993678;28;20193;-52
2020/12/30 16:30:50;;;;;;;21.77;11.03;;;22.30;49.50;;;;;;6986178;28;20258;-48
2020/12/30 16:34:32;;;;;;;25.80;12.37;;;22.30;49.70;;;;;;6997673;28;20192;-49
2020/12/30 16:38:13;;;;;;;26.97;13.03;;;22.30;49.70;;;;;;6993111;28;20228;-46
2020/12/30 16:41:55;;;;;;;27.03;13.00;;;22.30;49.90;;;;;;6997535;28;20663;-48
2020/12/30 16:45:38;;;;;;;28.23;13.90;;;22.30;49.80;;;;;;6997631;28;20181;-46
2020/12/30 16:49:19;;;;;;;31.87;14.77;;;22.30;49.80;;;;;;6990642;28;20240;-47
2020/12/30 16:53:01;;;;;;;25.83;14.33;;;22.20;49.90;;;;;;6996217;28;20195;-48
2020/12/30 16:56:43;;;;;;;27.00;13.77;;;22.20;49.90;;;;;;6997992;28;20200;-49
2020/12/30 17:00:24;;;;;;;29.33;13.70;;;22.10;50.00;;;;;;6997289;28;20225;-47
2020/12/30 17:04:07;;;;;;;30.63;13.87;;;22.10;50.20;;;;;;6997307;28;20204;-47
2020/12/30 17:07:48;;;;;;;27.67;13.90;;;22.10;50.10;;;;;;6996252;28;20698;-47
2020/12/30 17:11:30;;;;;;;26.80;13.57;;;22.10;50.30;;;;;;6988220;28;20706;-48
2020/12/30 17:15:12;;;;;;;30.40;13.47;;;22.10;50.20;;;;;;6997590;28;20228;-50
2020/12/30 17:18:53;;;;;;;29.87;13.83;;;22.10;50.30;;;;;;6995657;28;20217;-52
2020/12/30 17:22:36;;;;;;;25.90;13.23;;;22.10;50.40;;;;;;6996685;28;20216;-53
2020/12/30 17:26:17;;;;;;;26.10;14.07;;;22.00;50.30;;;;;;6996761;28;20196;-50
2020/12/30 17:30:00;;;;;;;26.03;14.10;;;21.70;50.50;;;;;;6991754;28;20303;-50
2020/12/30 17:33:41;;;;;;;22.33;11.97;;;21.60;50.80;;;;;;6996278;28;20197;-50
2020/12/30 17:37:23;;;;;;;23.70;12.80;;;21.60;51.00;;;;;;6996622;28;20185;-48
2020/12/30 17:41:05;;;;;;;24.17;11.93;;;21.50;51.80;;;;;;6987575;28;20563;-48
2020/12/30 17:44:48;;;;;;;19.00;10.67;;;21.50;51.30;;;;;;6985250;28;20255;-48
2020/12/30 17:48:29;;;;;;;19.77;11.13;;;21.50;51.10;;;;;;6995490;28;20216;-48
2020/12/30 17:52:12;;;;;;;20.73;10.83;;;21.50;51.30;;;;;;6995585;28;20280;-47
2020/12/30 17:55:54;;;;;;;19.27;10.57;;;21.40;51.30;;;;;;6995568;28;20723;-46
2020/12/30 17:59:37;;;;;;;16.83;9.73;;;21.40;51.50;;;;;;6995594;28;20266;-46
2020/12/30 18:03:18;;;;;;;17.27;9.83;;;21.30;51.50;;;;;;6994838;28;20696;-47
2020/12/30 18:07:00;;;;;;;17.50;9.73;;;21.30;51.60;;;;;;6984541;28;20576;-45
2020/12/30 18:10:42;;;;;;;17.10;9.27;;;21.30;51.80;;;;;;6993833;28;20295;-46
